Time;durP1;ratioP1;P1;durP2;ratioP2;P2;SDS_P1;SDS_P2;PMS_P1;PMS_P2;Temp;Humidity;BMP_temperature;BMP_pressure;BME280_temperature;BME280_humidity;BME280_pressure;Samples;Min_cycle;Max_cycle;Signal;HPM_P1;HPM_P2
2023/07/26 00:01:06;;;;;;;;;;;;;;;14.73;67.40;101086.75;4955157;28;19957;-77
2023/07/26 00:03:32;;;;;;;;;;;;;;;14.75;65.96;101095.56;4956627;29;19922;-77
2023/07/26 00:05:57;;;;;;;;;;;;;;;14.76;63.97;101086.63;4956745;29;20036;-76
2023/07/26 00:08:22;;;;;;;;;;;;;;;14.74;63.16;101094.69;4955361;28;20394;-76
2023/07/26 00:10:48;;;;;;;;;;;;;;;14.69;64.52;101087.75;4955158;29;19940;-76
2023/07/26 00:13:17;;;;;;;;;;;;;;;14.65;64.54;101086.16;4955160;29;19926;-76
2023/07/26 00:15:42;;;;;;;;;;;;;;;14.61;62.71;101088.94;4953840;28;20061;-76
2023/07/26 00:18:08;;;;;;;;;;;;;;;14.58;64.65;101083.69;4955611;28;20022;-76
2023/07/26 00:20:33;;;;;;;;;;;;;;;14.57;65.24;101089.94;4956389;29;21841;-76
2023/07/26 00:22:58;;;;;;;;;;;;;;;14.56;64.71;101082.00;4956401;29;20366;-76
2023/07/26 00:25:24;;;;;;;;;;;;;;;14.53;64.95;101090.06;4955018;29;20274;-76
2023/07/26 00:27:49;;;;;;;;;;;;;;;14.46;65.50;101078.75;4956461;29;19948;-76
2023/07/26 00:30:15;;;;;;;;;;;;;;;14.41;64.92;101078.91;4954904;29;20013;-76
2023/07/26 00:32:40;;;;;;;;;;;;;;;14.37;68.25;101089.72;4956004;29;19930;-76
2023/07/26 00:35:06;;;;;;;;;;;;;;;14.38;66.58;101076.34;4954648;29;19947;-76
2023/07/26 00:37:31;;;;;;;;;;;;;;;14.36;66.88;101085.31;4956408;29;19938;-77
2023/07/26 00:39:57;;;;;;;;;;;;;;;14.32;67.26;101083.69;4955153;29;19974;-76
2023/07/26 00:42:22;;;;;;;;;;;;;;;14.29;68.30;101079.34;4938916;29;19927;-76
2023/07/26 00:44:48;;;;;;;;;;;;;;;14.26;66.65;101081.22;4956104;29;20234;-76
2023/07/26 00:47:13;;;;;;;;;;;;;;;14.19;65.98;101081.44;4955523;29;20017;-76
2023/07/26 00:49:38;;;;;;;;;;;;;;;14.17;65.92;101087.72;4955726;29;19934;-76
2023/07/26 00:52:04;;;;;;;;;;;;;;;14.14;66.57;101080.72;4955806;29;20381;-76
2023/07/26 00:54:29;;;;;;;;;;;;;;;14.11;66.59;101075.47;4955441;29;19923;-76
2023/07/26 00:56:55;;;;;;;;;;;;;;;14.06;66.51;101084.53;4952467;29;19931;-76
2023/07/26 00:59:20;;;;;;;;;;;;;;;13.99;66.16;101081.19;4955416;29;20331;-76
2023/07/26 01:01:48;;;;;;;;;;;;;;;13.95;66.32;101077.75;4955629;29;19929;-76
2023/07/26 01:04:13;;;;;;;;;;;;;;;13.92;68.24;101079.63;4938370;29;19926;-76
2023/07/26 01:06:51;;;;;;;;;;;;;;;13.87;66.77;101082.47;4954105;29;20056;-76
2023/07/26 01:09:28;;;;;;;;;;;;;;;13.84;66.75;101076.34;4937324;29;19937;-76
2023/07/26 01:11:56;;;;;;;;;;;;;;;13.82;67.13;101086.19;4955124;29;19924;-76
2023/07/26 01:14:27;;;;;;;;;;;;;;;13.82;67.10;101083.50;4953365;29;19966;-76
2023/07/26 01:16:53;;;;;;;;;;;;;;;13.84;67.45;101084.34;4953854;29;20298;-76
2023/07/26 01:19:18;;;;;;;;;;;;;;;13.84;67.74;101085.22;4955021;29;19923;-77
2023/07/26 01:21:44;;;;;;;;;;;;;;;13.87;68.69;101078.91;4937963;29;20336;-77
2023/07/26 01:24:09;;;;;;;;;;;;;;;13.90;67.78;101085.03;4937864;29;20018;-78
2023/07/26 01:26:35;;;;;;;;;;;;;;;13.91;67.38;101093.88;4955165;29;20018;-77
2023/07/26 01:29:00;;;;;;;;;;;;;;;13.90;67.57;101094.81;4920269;29;20033;-78
2023/07/26 01:31:26;;;;;;;;;;;;;;;13.89;67.16;101085.06;4935696;29;19931;-77
2023/07/26 01:33:52;;;;;;;;;;;;;;;13.90;67.59;101089.50;4936115;29;19918;-77
2023/07/26 01:36:24;;;;;;;;;;;;;;;13.91;67.82;101091.22;4936354;29;19918;-78
2023/07/26 01:38:50;;;;;;;;;;;;;;;13.93;68.69;101087.59;4936081;29;19966;-77
2023/07/26 01:41:17;;;;;;;;;;;;;;;13.98;68.36;101092.78;4936108;29;19930;-77
2023/07/26 01:43:42;;;;;;;;;;;;;;;14.02;68.88;101090.88;4934371;29;19962;-77
2023/07/26 01:46:17;;;;;;;;;;;;;;;14.02;69.30;101089.09;4935342;29;19919;-77
2023/07/26 01:48:42;;;;;;;;;;;;;;;14.07;70.06;101089.81;4935408;29;20001;-77
2023/07/26 01:51:08;;;;;;;;;;;;;;;14.13;69.89;101096.72;4935850;29;20017;-76
2023/07/26 01:53:33;;;;;;;;;;;;;;;14.15;68.94;101084.25;4935336;29;19915;-77
2023/07/26 01:55:59;;;;;;;;;;;;;;;14.16;69.49;101089.50;4918152;29;20300;-77
2023/07/26 01:58:25;;;;;;;;;;;;;;;14.15;67.98;101086.91;4918399;29;20343;-76
2023/07/26 02:00:50;;;;;;;;;;;;;;;14.09;69.68;101087.94;4918056;29;20018;-76
2023/07/26 02:03:16;;;;;;;;;;;;;;;14.07;68.80;101086.25;4918080;29;20011;-76
2023/07/26 02:05:43;;;;;;;;;;;;;;;14.03;69.41;101090.81;4902520;29;20010;-76
2023/07/26 02:08:08;;;;;;;;;;;;;;;13.93;70.34;101084.94;4918079;29;20302;-75
2023/07/26 02:10:33;;;;;;;;;;;;;;;13.93;70.48;101082.25;4917381;29;20005;-76
2023/07/26 02:12:59;;;;;;;;;;;;;;;13.92;69.25;101096.50;4918172;29;19919;-76
2023/07/26 02:15:24;;;;;;;;;;;;;;;13.90;68.81;101093.00;4931839;29;19966;-76
2023/07/26 02:17:49;;;;;;;;;;;;;;;13.86;68.91;101090.50;4918189;29;19923;-75
2023/07/26 02:20:15;;;;;;;;;;;;;;;13.80;68.70;101078.25;4933510;29;19925;-76
2023/07/26 02:22:41;;;;;;;;;;;;;;;13.74;68.58;101086.41;4917881;29;19923;-76
2023/07/26 02:25:06;;;;;;;;;;;;;;;13.72;69.03;101077.59;4917586;29;19919;-76
2023/07/26 02:27:31;;;;;;;;;;;;;;;13.70;71.75;101079.47;4940836;29;19936;-76
2023/07/26 02:29:57;;;;;;;;;;;;;;;13.72;69.32;101080.25;4936502;29;19930;-76
2023/07/26 02:32:22;;;;;;;;;;;;;;;13.70;71.02;101076.81;4937036;29;19922;-76
2023/07/26 02:34:48;;;;;;;;;;;;;;;13.71;70.71;101078.53;4936598;29;20432;-76
2023/07/26 02:37:14;;;;;;;;;;;;;;;13.68;69.98;101073.31;4954030;29;20495;-76
2023/07/26 02:39:39;;;;;;;;;;;;;;;13.66;70.13;101076.00;4954176;28;19993;-76
2023/07/26 02:42:05;;;;;;;;;;;;;;;13.65;70.16;101074.28;4940103;29;20326;-76
2023/07/26 02:44:32;;;;;;;;;;;;;;;13.65;72.00;101076.94;4940381;29;19930;-76
2023/07/26 02:46:58;;;;;;;;;;;;;;;13.65;71.53;101066.31;4940413;29;19922;-77
2023/07/26 02:49:23;;;;;;;;;;;;;;;13.66;69.18;101069.81;4951129;29;19978;-77
2023/07/26 02:51:48;;;;;;;;;;;;;;;13.64;69.52;101071.66;4933832;29;19930;-77
2023/07/26 02:54:14;;;;;;;;;;;;;;;13.57;71.94;101070.97;4940296;29;19927;-77
2023/07/26 02:56:39;;;;;;;;;;;;;;;13.56;69.98;101074.56;4940438;29;19981;-77
2023/07/26 02:59:05;;;;;;;;;;;;;;;13.54;70.52;101073.72;4924325;29;19931;-77
2023/07/26 03:01:30;;;;;;;;;;;;;;;13.49;69.89;101078.31;4924327;29;19930;-77
2023/07/26 03:03:56;;;;;;;;;;;;;;;13.46;72.80;101078.41;4957324;29;19922;-77
2023/07/26 03:06:21;;;;;;;;;;;;;;;13.42;73.42;101085.59;4940243;29;19930;-77
2023/07/26 03:08:46;;;;;;;;;;;;;;;13.35;76.32;101086.69;4923891;29;19973;-77
2023/07/26 03:11:12;;;;;;;;;;;;;;;13.34;77.15;101091.16;4934963;29;19941;-77
2023/07/26 03:13:38;;;;;;;;;;;;;;;13.33;78.77;101077.91;4914847;29;19923;-77
2023/07/26 03:16:03;;;;;;;;;;;;;;;13.37;75.62;101082.22;4934869;29;19930;-77
2023/07/26 03:18:29;;;;;;;;;;;;;;;13.33;77.35;101077.91;4956139;29;19923;-77
2023/07/26 03:20:54;;;;;;;;;;;;;;;13.31;76.89;101077.09;4934168;29;19923;-77
2023/07/26 03:23:19;;;;;;;;;;;;;;;13.30;74.67;101083.31;4936596;29;19923;-77
2023/07/26 03:25:45;;;;;;;;;;;;;;;13.27;77.21;101091.38;4939855;29;19922;-77
2023/07/26 03:28:12;;;;;;;;;;;;;;;13.25;78.92;101090.50;4955923;29;20517;-77
2023/07/26 03:30:38;;;;;;;;;;;;;;;13.22;76.94;101093.28;4939707;29;20271;-77
2023/07/26 03:33:03;;;;;;;;;;;;;;;13.17;76.53;101093.41;4939964;29;19922;-77
2023/07/26 03:35:28;;;;;;;;;;;;;;;13.16;76.90;101096.13;4957251;29;20386;-77
2023/07/26 03:37:54;;;;;;;;;;;;;;;13.14;75.56;101093.50;4923933;29;19925;-77
2023/07/26 03:40:20;;;;;;;;;;;;;;;13.09;75.41;101090.09;4939798;29;20016;-77
2023/07/26 03:42:45;;;;;;;;;;;;;;;13.04;74.66;101087.56;4956933;29;19946;-77
2023/07/26 03:45:10;;;;;;;;;;;;;;;12.98;75.23;101094.81;4956879;29;19926;-77
2023/07/26 03:47:36;;;;;;;;;;;;;;;12.93;76.28;101094.09;4939610;29;19926;-76
2023/07/26 03:50:01;;;;;;;;;;;;;;;12.92;76.17;101093.22;4923707;29;20049;-76
2023/07/26 03:52:26;;;;;;;;;;;;;;;12.88;76.21;101092.44;4955506;28;19929;-77
2023/07/26 03:54:53;;;;;;;;;;;;;;;12.86;78.39;101096.94;4956597;29;20378;-77
2023/07/26 03:57:18;;;;;;;;;;;;;;;12.85;77.94;101097.81;4956808;29;19926;-77
2023/07/26 03:59:44;;;;;;;;;;;;;;;12.83;78.73;101099.66;4956820;29;20017;-77
2023/07/26 04:02:10;;;;;;;;;;;;;;;12.82;76.39;101081.97;4939170;29;20087;-77
2023/07/26 04:04:35;;;;;;;;;;;;;;;12.75;76.28;101088.34;4956485;29;20350;-77
2023/07/26 04:07:02;;;;;;;;;;;;;;;12.70;76.26;101087.59;4923981;29;19922;-77
2023/07/26 04:09:27;;;;;;;;;;;;;;;12.63;74.45;101088.69;4924271;29;19922;-77
2023/07/26 04:11:57;;;;;;;;;;;;;;;12.56;76.83;101089.75;4951009;28;19919;-77
2023/07/26 04:14:22;;;;;;;;;;;;;;;12.50;75.72;101090.78;4945927;29;20735;-77
2023/07/26 04:16:47;;;;;;;;;;;;;;;12.45;74.79;101087.38;4943057;29;19929;-77
2023/07/26 04:19:13;;;;;;;;;;;;;;;12.43;75.13;101090.06;4956546;29;19926;-77
2023/07/26 04:21:38;;;;;;;;;;;;;;;12.40;75.69;101092.81;4946807;29;19926;-77
2023/07/26 04:24:04;;;;;;;;;;;;;;;12.37;75.48;101087.59;4956416;29;19926;-77
2023/07/26 04:26:29;;;;;;;;;;;;;;;12.34;75.37;101087.66;4954769;29;19972;-77
2023/07/26 04:28:54;;;;;;;;;;;;;;;12.34;76.69;101087.66;4956801;29;20277;-76
2023/07/26 04:31:20;;;;;;;;;;;;;;;12.34;77.73;101089.44;4938705;29;19966;-77
2023/07/26 04:33:47;;;;;;;;;;;;;;;12.34;76.00;101086.78;4949120;29;20434;-77
2023/07/26 04:36:12;;;;;;;;;;;;;;;12.34;76.69;101089.44;4939820;29;19923;-78
2023/07/26 04:38:37;;;;;;;;;;;;;;;12.35;76.09;101096.50;4956501;29;19930;-77
2023/07/26 04:41:04;;;;;;;;;;;;;;;12.35;76.29;101091.19;4955995;29;19977;-77
2023/07/26 04:43:29;;;;;;;;;;;;;;;12.34;76.12;101090.31;4954450;29;19926;-77
2023/07/26 04:45:55;;;;;;;;;;;;;;;12.36;76.01;101093.78;4926040;29;19918;-77
2023/07/26 04:48:20;;;;;;;;;;;;;;;12.35;76.95;101094.72;4956022;29;19918;-78
2023/07/26 04:50:46;;;;;;;;;;;;;;;12.36;78.41;101096.44;4956132;29;20441;-77
2023/07/26 04:53:12;;;;;;;;;;;;;;;12.37;75.63;101098.22;4955395;29;19918;-78
2023/07/26 04:55:45;;;;;;;;;;;;;;;12.39;77.59;101092.88;4953719;29;20397;-78
2023/07/26 04:58:11;;;;;;;;;;;;;;;12.40;78.17;101091.94;4938559;29;19926;-78
2023/07/26 05:00:38;;;;;;;;;;;;;;;12.41;78.12;101099.00;4955624;29;20302;-78
2023/07/26 05:03:03;;;;;;;;;;;;;;;12.40;79.96;101095.47;4955021;28;20013;-78
2023/07/26 05:05:28;;;;;;;;;;;;;;;12.39;76.76;101088.41;4922558;29;19964;-77
2023/07/26 05:07:54;;;;;;;;;;;;;;;12.41;78.53;101094.56;4937806;29;20342;-77
2023/07/26 05:10:19;;;;;;;;;;;;;;;12.41;78.08;101086.59;4915874;29;20068;-77
2023/07/26 05:12:45;;;;;;;;;;;;;;;12.48;76.99;101089.94;4955218;29;19977;-77
2023/07/26 05:15:11;;;;;;;;;;;;;;;12.57;76.75;101087.06;4919614;29;19919;-77
2023/07/26 05:17:36;;;;;;;;;;;;;;;12.65;78.92;101087.72;4929850;29;19945;-77
2023/07/26 05:20:01;;;;;;;;;;;;;;;12.73;79.72;101082.19;4935225;29;19919;-77
2023/07/26 05:22:27;;;;;;;;;;;;;;;12.82;78.21;101081.97;4944938;29;19941;-78
2023/07/26 05:24:52;;;;;;;;;;;;;;;12.93;77.56;101088.78;4944345;29;19922;-77
2023/07/26 05:27:18;;;;;;;;;;;;;;;13.01;79.22;101076.16;4954776;29;19992;-78
2023/07/26 05:29:43;;;;;;;;;;;;;;;13.06;78.79;101075.09;4954654;29;19993;-78
2023/07/26 05:32:09;;;;;;;;;;;;;;;13.16;77.85;101082.81;4932494;29;19923;-78
2023/07/26 05:34:35;;;;;;;;;;;;;;;13.24;77.91;101088.78;4946058;29;20313;-78
2023/07/26 05:37:01;;;;;;;;;;;;;;;13.34;80.84;101091.16;4921695;29;19930;-78
2023/07/26 05:39:27;;;;;;;;;;;;;;;13.39;82.82;101085.69;4937205;29;19923;-78
2023/07/26 05:41:52;;;;;;;;;;;;;;;13.49;81.82;101094.28;4937341;29;20609;-78
2023/07/26 05:44:17;;;;;;;;;;;;;;;13.60;81.89;101091.28;4954487;29;19918;-78
2023/07/26 05:46:43;;;;;;;;;;;;;;;13.70;77.69;101084.78;4921549;29;20300;-78
2023/07/26 05:49:09;;;;;;;;;;;;;;;13.84;76.37;101095.00;4954360;29;19989;-78
2023/07/26 05:51:34;;;;;;;;;;;;;;;13.88;82.47;101091.31;4937508;29;19926;-78
2023/07/26 05:54:00;;;;;;;;;;;;;;;13.89;82.42;101096.59;4954104;29;20286;-78
2023/07/26 05:56:25;;;;;;;;;;;;;;;13.91;79.29;101099.22;4921583;29;19922;-77
2023/07/26 05:58:51;;;;;;;;;;;;;;;13.97;82.46;101104.31;4937423;29;19919;-78
2023/07/26 06:01:16;;;;;;;;;;;;;;;14.00;83.83;101101.59;4937064;29;20326;-77
2023/07/26 06:03:42;;;;;;;;;;;;;;;14.06;82.44;101113.81;4954637;29;20367;-77
2023/07/26 06:06:08;;;;;;;;;;;;;;;14.10;84.36;101116.34;4940885;29;19918;-78
2023/07/26 06:08:33;;;;;;;;;;;;;;;14.17;85.21;101119.69;4936976;29;20281;-78
2023/07/26 06:10:58;;;;;;;;;;;;;;;14.19;85.45;101116.06;4947631;29;19961;-77
2023/07/26 06:13:24;;;;;;;;;;;;;;;14.25;83.79;101124.78;4944234;29;20298;-78
2023/07/26 06:15:49;;;;;;;;;;;;;;;14.30;84.75;101121.03;4931089;29;19922;-78
2023/07/26 06:18:15;;;;;;;;;;;;;;;14.34;85.68;101130.66;4934768;29;20266;-78
2023/07/26 06:20:40;;;;;;;;;;;;;;;14.38;84.82;101126.97;4919464;29;19970;-78
2023/07/26 06:23:06;;;;;;;;;;;;;;;14.44;82.98;101125.91;4935022;29;20017;-78
2023/07/26 06:25:32;;;;;;;;;;;;;;;14.52;84.73;101136.31;4934014;29;20397;-78
2023/07/26 06:27:57;;;;;;;;;;;;;;;14.54;84.63;101138.03;4939729;29;19922;-78
2023/07/26 06:30:23;;;;;;;;;;;;;;;14.57;85.04;101155.72;4952288;29;19923;-77
2023/07/26 06:32:49;;;;;;;;;;;;;;;14.55;86.03;101153.09;4937784;29;19930;-78
2023/07/26 06:35:14;;;;;;;;;;;;;;;14.55;86.42;101155.75;4946050;29;19929;-78
2023/07/26 06:37:40;;;;;;;;;;;;;;;14.53;86.24;101149.59;4949344;28;20312;-79
2023/07/26 06:40:05;;;;;;;;;;;;;;;14.50;84.93;101148.81;4944637;29;19930;-80
2023/07/26 06:42:32;;;;;;;;;;;;;;;14.48;85.51;101155.97;4932490;29;20350;-80
2023/07/26 06:44:57;;;;;;;;;;;;;;;14.48;85.97;101162.16;4931723;29;20001;-79
2023/07/26 06:47:23;;;;;;;;;;;;;;;14.47;86.24;101167.56;4924134;29;20355;-79
2023/07/26 06:49:48;;;;;;;;;;;;;;;14.43;87.84;101165.91;4928061;29;19919;-79
2023/07/26 06:52:14;;;;;;;;;;;;;;;14.38;89.37;101168.72;4934250;29;19927;-79
2023/07/26 06:54:40;;;;;;;;;;;;;;;14.35;87.09;101168.81;4932755;29;20402;-79
2023/07/26 06:57:05;;;;;;;;;;;;;;;14.36;86.85;101173.22;4930629;29;19923;-81
2023/07/26 06:59:31;;;;;;;;;;;;;;;14.35;87.72;101168.81;4931340;29;19929;-81
2023/07/26 07:01:56;;;;;;;;;;;;;;;14.35;88.68;101175.03;4936660;29;20380;-81
2023/07/26 07:04:21;;;;;;;;;;;;;;;14.35;90.51;101175.03;4949342;29;19935;-81
2023/07/26 07:06:47;;;;;;;;;;;;;;;14.36;90.91;101181.22;4934353;29;19954;-82
2023/07/26 07:09:12;;;;;;;;;;;;;;;14.34;91.62;101185.72;4932831;29;20050;-81
2023/07/26 07:11:37;;;;;;;;;;;;;;;14.31;91.14;101197.34;4943700;29;19918;-81
2023/07/26 07:14:03;;;;;;;;;;;;;;;14.28;94.02;101204.56;4941096;29;20496;-82
2023/07/26 07:16:29;;;;;;;;;;;;;;;14.27;92.77;101211.69;4933290;29;20002;-82
2023/07/26 07:18:54;;;;;;;;;;;;;;;14.24;89.55;101195.78;4909884;29;19927;-83
2023/07/26 07:21:20;;;;;;;;;;;;;;;14.21;93.40;101206.56;4931030;29;19925;-81
2023/07/26 07:23:46;;;;;;;;;;;;;;;14.16;93.49;101195.16;4917065;29;19923;-81
2023/07/26 07:26:11;;;;;;;;;;;;;;;14.13;90.93;101190.81;4917399;29;20050;-81
2023/07/26 07:28:37;;;;;;;;;;;;;;;14.15;91.89;101191.63;4948988;29;19926;-81
2023/07/26 07:31:02;;;;;;;;;;;;;;;14.18;91.76;101198.66;4937266;29;19978;-81
2023/07/26 07:33:28;;;;;;;;;;;;;;;14.22;90.32;101199.44;4944381;29;19958;-82
2023/07/26 07:35:53;;;;;;;;;;;;;;;14.27;92.08;101205.47;4926159;29;19929;-82
2023/07/26 07:38:18;;;;;;;;;;;;;;;14.25;91.80;101200.22;4937472;29;19990;-82
2023/07/26 07:40:44;;;;;;;;;;;;;;;14.30;89.08;101202.75;4920341;29;19970;-80
2023/07/26 07:43:09;;;;;;;;;;;;;;;14.35;88.24;101196.34;4937342;29;19923;-82
2023/07/26 07:45:39;;;;;;;;;;;;;;;14.34;90.81;101196.38;4935472;29;19934;-81
2023/07/26 07:48:05;;;;;;;;;;;;;;;14.38;89.92;101196.22;4931045;29;20351;-82
2023/07/26 07:50:30;;;;;;;;;;;;;;;14.45;90.61;101191.59;4935055;29;19969;-81
2023/07/26 07:52:56;;;;;;;;;;;;;;;14.52;87.03;101190.47;4930053;29;19969;-83
2023/07/26 07:55:21;;;;;;;;;;;;;;;14.58;92.28;101187.63;4928815;29;19926;-81
2023/07/26 07:57:47;;;;;;;;;;;;;;;14.65;89.93;101190.97;4930042;29;19927;-82
2023/07/26 08:00:12;;;;;;;;;;;;;;;14.73;93.01;101188.03;4952779;29;19930;-83
2023/07/26 08:02:38;;;;;;;;;;;;;;;14.90;95.39;101185.66;4935823;29;20324;-83
2023/07/26 08:05:03;;;;;;;;;;;;;;;15.01;94.91;101199.53;4941891;29;19965;-83
2023/07/26 08:07:29;;;;;;;;;;;;;;;15.06;93.38;101194.03;4937180;29;19922;-82
2023/07/26 08:09:54;;;;;;;;;;;;;;;15.18;96.43;101200.72;4946678;29;19929;-85
2023/07/26 08:12:20;;;;;;;;;;;;;;;15.31;96.25;101193.16;4955166;29;19923;-83
2023/07/26 08:14:49;;;;;;;;;;;;;;;15.49;96.13;101196.03;4929666;29;19923;-84
2023/07/26 08:17:15;;;;;;;;;;;;;;;15.65;94.57;101195.44;4928084;29;19925;-83
2023/07/26 08:19:40;;;;;;;;;;;;;;;15.80;95.03;101204.72;4952826;29;19918;-83
2023/07/26 08:22:06;;;;;;;;;;;;;;;15.91;94.02;101203.38;4939941;29;19930;-83
2023/07/26 08:24:31;;;;;;;;;;;;;;;16.02;93.83;101197.66;4948752;29;19965;-83
2023/07/26 08:26:56;;;;;;;;;;;;;;;16.07;92.50;101195.66;4952992;29;19918;-83
2023/07/26 08:29:22;;;;;;;;;;;;;;;16.18;92.10;101197.91;4954444;29;19922;-83
2023/07/26 08:31:47;;;;;;;;;;;;;;;16.32;91.39;101203.56;4940796;29;19927;-85
2023/07/26 08:34:13;;;;;;;;;;;;;;;16.45;91.87;101195.94;4947713;29;19922;-83
2023/07/26 08:36:38;;;;;;;;;;;;;;;16.57;91.06;101191.88;4923534;29;19945;-83
2023/07/26 08:39:04;;;;;;;;;;;;;;;16.77;91.54;101201.75;4914864;29;20010;-84
2023/07/26 08:41:30;;;;;;;;;;;;;;;16.90;88.57;101199.47;4925079;29;19930;-83
2023/07/26 08:43:58;;;;;;;;;;;;;;;16.98;86.81;101186.63;4922015;29;19923;-84
2023/07/26 08:46:24;;;;;;;;;;;;;;;17.12;88.71;101194.91;4937005;29;20429;-84
2023/07/26 08:48:50;;;;;;;;;;;;;;;17.24;87.97;101189.97;4936169;29;20457;-83
2023/07/26 08:51:16;;;;;;;;;;;;;;;17.35;87.19;101191.22;4949038;29;19954;-83
2023/07/26 08:53:42;;;;;;;;;;;;;;;17.47;88.05;101191.63;4923586;29;20653;-85
2023/07/26 08:56:08;;;;;;;;;;;;;;;17.55;83.18;101192.13;4945241;29;20415;-84
2023/07/26 08:58:34;;;;;;;;;;;;;;;17.68;85.14;101189.75;4944661;29;19918;-85
2023/07/26 09:00:59;;;;;;;;;;;;;;;17.81;82.72;101181.13;4936757;29;19919;-83
2023/07/26 09:03:25;;;;;;;;;;;;;;;17.81;82.00;101175.78;4936668;29;20386;-83
2023/07/26 09:06:10;;;;;;;;;;;;;;;17.83;82.02;101175.72;4927689;29;20410;-78
2023/07/26 09:08:36;;;;;;;;;;;;;;;17.99;81.83;101176.72;4943745;29;19922;-78
2023/07/26 09:11:17;;;;;;;;;;;;;;;18.01;79.62;101182.00;4935572;29;19998;-78
2023/07/26 09:13:43;;;;;;;;;;;;;;;18.11;80.39;101185.13;4931977;29;19919;-78
2023/07/26 09:16:08;;;;;;;;;;;;;;;18.30;78.70;101183.31;4936955;29;19926;-77
2023/07/26 09:18:34;;;;;;;;;;;;;;;18.44;78.63;101182.59;4930111;29;19997;-78
2023/07/26 09:21:20;;;;;;;;;;;;;;;18.49;78.39;101172.53;4949832;29;19922;-76
2023/07/26 09:23:45;;;;;;;;;;;;;;;18.63;73.73;101166.47;4937015;29;19954;-78
2023/07/26 09:26:11;;;;;;;;;;;;;;;18.78;70.88;101167.56;4928609;29;19965;-76
2023/07/26 09:28:36;;;;;;;;;;;;;;;18.88;68.79;101168.81;4932251;29;19930;-78
2023/07/26 09:31:01;;;;;;;;;;;;;;;18.70;67.93;101160.72;4953027;29;19991;-79
2023/07/26 09:33:28;;;;;;;;;;;;;;;18.56;70.08;101171.28;4953724;29;20449;-78
2023/07/26 09:35:54;;;;;;;;;;;;;;;18.36;71.58;101168.72;4950244;29;20101;-75
2023/07/26 09:38:23;;;;;;;;;;;;;;;18.16;72.61;101172.38;4950263;29;19969;-77
2023/07/26 09:40:49;;;;;;;;;;;;;;;17.95;73.10;101179.59;4945461;29;20259;-76
2023/07/26 09:43:34;;;;;;;;;;;;;;;17.65;74.45;101185.41;4949355;29;20035;-77
2023/07/26 09:46:03;;;;;;;;;;;;;;;17.32;73.12;101185.16;4948925;29;19962;-77
2023/07/26 09:48:28;;;;;;;;;;;;;;;17.13;74.07;101187.75;4948114;29;19931;-77
2023/07/26 09:50:55;;;;;;;;;;;;;;;17.03;74.15;101179.25;4953652;28;19969;-78
2023/07/26 09:53:22;;;;;;;;;;;;;;;17.00;75.08;101175.84;4935060;28;19969;-78
2023/07/26 09:55:49;;;;;;;;;;;;;;;16.98;75.26;101176.78;4944699;29;20005;-78
2023/07/26 09:58:14;;;;;;;;;;;;;;;17.00;75.42;101184.75;4953625;29;19930;-80
2023/07/26 10:00:40;;;;;;;;;;;;;;;17.04;76.45;101188.19;4931255;29;20002;-82
2023/07/26 10:03:06;;;;;;;;;;;;;;;17.15;77.74;101180.53;4945281;29;19926;-80
2023/07/26 10:05:36;;;;;;;;;;;;;;;17.27;77.50;101177.31;4943776;29;20062;-80
2023/07/26 10:08:01;;;;;;;;;;;;;;;17.46;78.91;101184.50;4949032;28;19927;-80
2023/07/26 10:10:27;;;;;;;;;;;;;;;17.53;78.01;101178.84;4919282;29;20285;-80
2023/07/26 10:12:56;;;;;;;;;;;;;;;17.51;77.88;101178.03;4951776;29;19930;-80
2023/07/26 10:15:22;;;;;;;;;;;;;;;17.45;75.59;101183.66;4951276;29;19954;-80
2023/07/26 10:17:51;;;;;;;;;;;;;;;17.41;75.47;101201.69;4936944;29;19925;-80
2023/07/26 10:20:16;;;;;;;;;;;;;;;17.30;77.59;101201.25;4948335;29;19921;-77
2023/07/26 10:22:43;;;;;;;;;;;;;;;17.15;77.46;101194.78;4945640;29;20349;-79
2023/07/26 10:25:08;;;;;;;;;;;;;;;17.03;77.45;101178.41;4952287;29;19922;-79
2023/07/26 10:27:34;;;;;;;;;;;;;;;16.87;77.97;101186.22;4954132;29;20293;-79
2023/07/26 10:30:00;;;;;;;;;;;;;;;16.80;77.56;101180.25;4928675;29;20302;-80
2023/07/26 10:32:26;;;;;;;;;;;;;;;16.74;78.08;101180.47;4933895;29;20398;-80
2023/07/26 10:34:58;;;;;;;;;;;;;;;16.78;78.19;101171.41;4944462;29;19939;-80
2023/07/26 10:37:29;;;;;;;;;;;;;;;16.91;79.30;101177.09;4933145;29;19919;-79
2023/07/26 10:39:55;;;;;;;;;;;;;;;17.19;79.02;101169.63;4931608;29;19930;-80
2023/07/26 10:42:22;;;;;;;;;;;;;;;17.51;79.48;101167.31;4925718;29;19923;-81
2023/07/26 10:44:48;;;;;;;;;;;;;;;17.78;76.64;101159.81;4924055;29;19930;-81
2023/07/26 10:47:14;;;;;;;;;;;;;;;17.97;75.89;101158.97;4927624;29;19923;-81
2023/07/26 10:49:44;;;;;;;;;;;;;;;18.19;78.01;101158.81;4949697;29;19934;-82
2023/07/26 10:52:09;;;;;;;;;;;;;;;18.41;74.01;101162.19;4932845;29;19918;-82
2023/07/26 10:54:35;;;;;;;;;;;;;;;18.64;76.25;101162.84;4934740;29;19923;-81
2023/07/26 10:57:23;;;;;;;;;;;;;;;18.87;71.90;101156.34;4929613;29;20286;-82
2023/07/26 10:59:54;;;;;;;;;;;;;;;19.08;71.27;101160.59;4934331;29;20318;-83
2023/07/26 11:02:39;;;;;;;;;;;;;;;19.02;72.04;101160.91;4928449;29;20021;-83
2023/07/26 11:05:12;;;;;;;;;;;;;;;18.92;68.50;101165.03;4922469;29;19919;-83
2023/07/26 11:08:07;;;;;;;;;;;;;;;18.80;66.86;101157.63;4930713;29;20339;-82
2023/07/26 11:10:34;;;;;;;;;;;;;;;18.68;69.88;101149.19;4926803;29;19919;-82
2023/07/26 11:13:08;;;;;;;;;;;;;;;18.61;68.28;101161.19;4935483;29;20010;-83
2023/07/26 11:15:35;;;;;;;;;;;;;;;18.69;70.48;101168.84;4949603;29;20389;-82
2023/07/26 11:18:00;;;;;;;;;;;;;;;19.00;66.45;101153.91;4936147;29;19942;-81
2023/07/26 11:20:26;;;;;;;;;;;;;;;19.00;65.87;101164.63;4936880;29;19919;-82
2023/07/26 11:22:51;;;;;;;;;;;;;;;19.20;63.85;101161.75;4939014;29;19923;-82
2023/07/26 11:25:19;;;;;;;;;;;;;;;19.38;62.51;101169.78;4932538;29;19923;-82
2023/07/26 11:27:45;;;;;;;;;;;;;;;19.32;63.58;101171.84;4937166;29;19937;-82
2023/07/26 11:30:14;;;;;;;;;;;;;;;19.32;64.54;101168.31;4940112;29;19931;-82
2023/07/26 11:32:47;;;;;;;;;;;;;;;19.33;63.59;101170.91;4915230;29;20002;-81
2023/07/26 11:35:13;;;;;;;;;;;;;;;19.26;59.32;101177.56;4920980;29;19941;-81
2023/07/26 11:37:39;;;;;;;;;;;;;;;19.36;63.37;101175.22;4915251;29;19922;-81
2023/07/26 11:40:05;;;;;;;;;;;;;;;19.76;62.40;101162.38;4927113;29;19927;-80
2023/07/26 11:42:33;;;;;;;;;;;;;;;20.29;61.75;101169.22;4889090;29;19923;-80
2023/07/26 11:45:03;;;;;;;;;;;;;;;20.60;57.19;101170.19;4936909;29;20319;-81
2023/07/26 11:47:32;;;;;;;;;;;;;;;20.61;58.24;101172.78;4933624;29;19919;-81
2023/07/26 11:49:57;;;;;;;;;;;;;;;20.75;58.76;101179.19;4932396;29;19919;-80
2023/07/26 11:52:23;;;;;;;;;;;;;;;20.67;54.04;101181.44;4929671;29;19934;-81
2023/07/26 11:54:55;;;;;;;;;;;;;;;20.45;55.76;101171.94;4918250;29;19929;-82
2023/07/26 11:57:20;;;;;;;;;;;;;;;20.26;57.15;101182.00;4938530;29;19919;-81
2023/07/26 11:59:45;;;;;;;;;;;;;;;19.94;54.43;101188.22;4933570;29;19923;-81
2023/07/26 12:02:11;;;;;;;;;;;;;;;20.02;54.01;101184.25;4937218;29;19926;-81
2023/07/26 12:04:36;;;;;;;;;;;;;;;20.14;54.48;101184.41;4926143;29;19926;-80
2023/07/26 12:07:02;;;;;;;;;;;;;;;20.38;54.07;101190.22;4918910;29;19923;-81
2023/07/26 12:09:27;;;;;;;;;;;;;;;20.75;53.29;101188.13;4903359;29;19922;-81
2023/07/26 12:11:53;;;;;;;;;;;;;;;21.04;54.81;101190.88;4937639;29;20000;-80
2023/07/26 12:14:22;;;;;;;;;;;;;;;21.14;53.89;101180.44;4912374;29;20389;-80
2023/07/26 12:16:49;;;;;;;;;;;;;;;20.98;51.18;101189.44;4915708;29;19923;-81
2023/07/26 12:19:14;;;;;;;;;;;;;;;20.75;49.89;101196.19;4925974;29;20370;-81
2023/07/26 12:21:40;;;;;;;;;;;;;;;20.70;50.57;101192.06;4937656;29;20017;-81
2023/07/26 12:24:06;;;;;;;;;;;;;;;20.81;50.57;101195.81;4921230;29;19985;-81
2023/07/26 12:26:34;;;;;;;;;;;;;;;20.69;51.94;101198.38;4938157;29;20093;-81
2023/07/26 12:29:00;;;;;;;;;;;;;;;20.53;51.43;101188.47;4949236;28;19922;-81
2023/07/26 12:31:30;;;;;;;;;;;;;;;20.58;51.39;101201.69;4952440;29;19930;-85